sensor_id;sensor_type;location;lat;lon;timestamp;P1;durP1;ratioP1;P2;durP2;ratioP2
70505;SDS011;58032;49.820;6.274;2023-01-30T00:01:18;24.50;;;9.07;;
70505;SDS011;58032;49.820;6.274;2023-01-30T00:03:45;27.20;;;10.00;;
70505;SDS011;58032;49.820;6.274;2023-01-30T00:06:12;28.52;;;10.38;;
70505;SDS011;58032;49.820;6.274;2023-01-30T00:08:38;20.02;;;8.68;;
70505;SDS011;58032;49.820;6.274;2023-01-30T00:11:06;24.52;;;9.75;;
70505;SDS011;58032;49.820;6.274;2023-01-30T00:13:33;23.67;;;8.10;;
70505;SDS011;58032;49.820;6.274;2023-01-30T00:16:00;24.00;;;9.15;;
70505;SDS011;58032;49.820;6.274;2023-01-30T00:18:27;24.45;;;9.55;;
70505;SDS011;58032;49.820;6.274;2023-01-30T00:20:54;23.90;;;8.98;;
70505;SDS011;58032;49.820;6.274;2023-01-30T00:23:21;32.05;;;12.05;;
70505;SDS011;58032;49.820;6.274;2023-01-30T00:25:47;29.10;;;10.77;;
70505;SDS011;58032;49.820;6.274;2023-01-30T00:28:14;27.38;;;8.52;;
70505;SDS011;58032;49.820;6.274;2023-01-30T00:30:41;20.88;;;8.73;;
70505;SDS011;58032;49.820;6.274;2023-01-30T00:33:08;20.15;;;9.43;;
70505;SDS011;58032;49.820;6.274;2023-01-30T00:35:35;24.52;;;7.63;;
70505;SDS011;58032;49.820;6.274;2023-01-30T00:38:01;20.87;;;8.17;;
70505;SDS011;58032;49.820;6.274;2023-01-30T00:40:28;20.70;;;7.93;;
70505;SDS011;58032;49.820;6.274;2023-01-30T00:42:55;21.50;;;8.40;;
70505;SDS011;58032;49.820;6.274;2023-01-30T00:45:40;22.25;;;9.40;;
70505;SDS011;58032;49.820;6.274;2023-01-30T00:48:27;15.65;;;6.43;;
70505;SDS011;58032;49.820;6.274;2023-01-30T00:50:54;25.07;;;9.83;;
70505;SDS011;58032;49.820;6.274;2023-01-30T00:53:20;27.73;;;8.75;;
70505;SDS011;58032;49.820;6.274;2023-01-30T00:55:49;24.08;;;8.88;;
70505;SDS011;58032;49.820;6.274;2023-01-30T00:58:16;21.35;;;8.80;;
70505;SDS011;58032;49.820;6.274;2023-01-30T01:00:43;25.60;;;9.10;;
70505;SDS011;58032;49.820;6.274;2023-01-30T01:03:10;26.60;;;9.67;;
70505;SDS011;58032;49.820;6.274;2023-01-30T01:05:37;21.33;;;8.15;;
70505;SDS011;58032;49.820;6.274;2023-01-30T01:08:04;26.13;;;9.48;;
70505;SDS011;58032;49.820;6.274;2023-01-30T01:10:31;25.63;;;9.60;;
70505;SDS011;58032;49.820;6.274;2023-01-30T01:12:58;26.33;;;9.77;;
70505;SDS011;58032;49.820;6.274;2023-01-30T01:15:25;26.57;;;10.20;;
70505;SDS011;58032;49.820;6.274;2023-01-30T01:17:52;32.45;;;10.57;;
70505;SDS011;58032;49.820;6.274;2023-01-30T01:20:19;23.38;;;7.40;;
70505;SDS011;58032;49.820;6.274;2023-01-30T01:22:46;24.77;;;9.70;;
70505;SDS011;58032;49.820;6.274;2023-01-30T01:25:15;22.67;;;9.13;;
70505;SDS011;58032;49.820;6.274;2023-01-30T01:27:45;27.93;;;11.30;;
70505;SDS011;58032;49.820;6.274;2023-01-30T01:30:15;26.27;;;10.77;;
70505;SDS011;58032;49.820;6.274;2023-01-30T01:32:42;31.15;;;10.45;;
70505;SDS011;58032;49.820;6.274;2023-01-30T01:35:09;30.60;;;10.95;;
70505;SDS011;58032;49.820;6.274;2023-01-30T01:37:36;28.02;;;9.32;;
70505;SDS011;58032;49.820;6.274;2023-01-30T01:40:04;29.80;;;10.03;;
70505;SDS011;58032;49.820;6.274;2023-01-30T01:42:49;23.60;;;8.60;;
70505;SDS011;58032;49.820;6.274;2023-01-30T01:45:17;19.17;;;8.63;;
70505;SDS011;58032;49.820;6.274;2023-01-30T01:50:17;24.73;;;10.05;;
70505;SDS011;58032;49.820;6.274;2023-01-30T01:52:46;19.13;;;8.00;;
70505;SDS011;58032;49.820;6.274;2023-01-30T01:55:16;21.48;;;9.60;;
70505;SDS011;58032;49.820;6.274;2023-01-30T01:57:47;25.17;;;10.30;;
70505;SDS011;58032;49.820;6.274;2023-01-30T02:00:16;24.55;;;10.63;;
70505;SDS011;58032;49.820;6.274;2023-01-30T02:03:06;25.92;;;10.07;;
70505;SDS011;58032;49.820;6.274;2023-01-30T02:05:32;22.67;;;8.30;;
70505;SDS011;58032;49.820;6.274;2023-01-30T02:11:09;19.35;;;8.13;;
70505;SDS011;58032;49.820;6.274;2023-01-30T02:13:38;23.98;;;8.50;;
70505;SDS011;58032;49.820;6.274;2023-01-30T02:16:05;18.70;;;8.30;;
70505;SDS011;58032;49.820;6.274;2023-01-30T02:18:33;26.07;;;9.93;;
70505;SDS011;58032;49.820;6.274;2023-01-30T02:21:20;18.00;;;7.10;;
70505;SDS011;58032;49.820;6.274;2023-01-30T02:24:01;26.33;;;10.02;;
70505;SDS011;58032;49.820;6.274;2023-01-30T02:39:47;14.82;;;5.40;;
70505;SDS011;58032;49.820;6.274;2023-01-30T02:42:28;16.13;;;5.90;;
70505;SDS011;58032;49.820;6.274;2023-01-30T02:50:18;21.58;;;7.68;;
70505;SDS011;58032;49.820;6.274;2023-01-30T02:52:46;24.27;;;8.13;;
70505;SDS011;58032;49.820;6.274;2023-01-30T02:55:21;23.25;;;8.35;;
70505;SDS011;58032;49.820;6.274;2023-01-30T02:57:48;26.50;;;8.50;;
70505;SDS011;58032;49.820;6.274;2023-01-30T03:00:15;20.88;;;8.15;;
70505;SDS011;58032;49.820;6.274;2023-01-30T03:02:48;19.38;;;7.80;;
70505;SDS011;58032;49.820;6.274;2023-01-30T03:05:37;23.80;;;7.90;;
70505;SDS011;58032;49.820;6.274;2023-01-30T03:10:50;23.83;;;9.30;;
70505;SDS011;58032;49.820;6.274;2023-01-30T03:13:19;20.38;;;7.10;;
70505;SDS011;58032;49.820;6.274;2023-01-30T03:18:12;20.23;;;7.75;;
70505;SDS011;58032;49.820;6.274;2023-01-30T03:20:39;10.88;;;5.13;;
70505;SDS011;58032;49.820;6.274;2023-01-30T03:23:07;13.67;;;5.47;;
70505;SDS011;58032;49.820;6.274;2023-01-30T03:25:34;16.38;;;5.47;;
70505;SDS011;58032;49.820;6.274;2023-01-30T03:28:02;12.50;;;5.95;;
70505;SDS011;58032;49.820;6.274;2023-01-30T03:30:30;18.98;;;7.95;;
70505;SDS011;58032;49.820;6.274;2023-01-30T03:33:05;22.65;;;8.10;;
70505;SDS011;58032;49.820;6.274;2023-01-30T03:35:34;13.17;;;5.43;;
70505;SDS011;58032;49.820;6.274;2023-01-30T03:38:01;23.60;;;6.50;;
70505;SDS011;58032;49.820;6.274;2023-01-30T03:40:28;18.27;;;6.45;;
70505;SDS011;58032;49.820;6.274;2023-01-30T03:42:56;20.20;;;6.93;;
70505;SDS011;58032;49.820;6.274;2023-01-30T03:45:23;18.67;;;6.45;;
70505;SDS011;58032;49.820;6.274;2023-01-30T03:47:50;16.87;;;7.17;;
70505;SDS011;58032;49.820;6.274;2023-01-30T03:50:17;17.83;;;6.30;;
70505;SDS011;58032;49.820;6.274;2023-01-30T03:52:44;14.88;;;5.63;;
70505;SDS011;58032;49.820;6.274;2023-01-30T03:55:14;18.60;;;6.03;;
70505;SDS011;58032;49.820;6.274;2023-01-30T03:57:42;18.40;;;6.95;;
70505;SDS011;58032;49.820;6.274;2023-01-30T04:00:09;17.17;;;6.40;;
70505;SDS011;58032;49.820;6.274;2023-01-30T04:02:41;16.92;;;6.68;;
70505;SDS011;58032;49.820;6.274;2023-01-30T04:05:11;17.30;;;5.10;;
70505;SDS011;58032;49.820;6.274;2023-01-30T04:07:42;13.95;;;4.78;;
70505;SDS011;58032;49.820;6.274;2023-01-30T04:10:09;16.85;;;6.25;;
70505;SDS011;58032;49.820;6.274;2023-01-30T04:12:36;11.87;;;4.27;;
70505;SDS011;58032;49.820;6.274;2023-01-30T04:15:03;17.00;;;6.35;;
70505;SDS011;58032;49.820;6.274;2023-01-30T04:17:42;19.42;;;6.85;;
70505;SDS011;58032;49.820;6.274;2023-01-30T04:20:44;16.13;;;5.95;;
70505;SDS011;58032;49.820;6.274;2023-01-30T04:23:11;11.95;;;4.88;;
70505;SDS011;58032;49.820;6.274;2023-01-30T04:25:38;13.60;;;5.33;;
70505;SDS011;58032;49.820;6.274;2023-01-30T04:28:08;9.68;;;3.85;;
70505;SDS011;58032;49.820;6.274;2023-01-30T04:30:36;14.20;;;5.38;;
70505;SDS011;58032;49.820;6.274;2023-01-30T04:33:25;16.02;;;6.28;;
70505;SDS011;58032;49.820;6.274;2023-01-30T04:35:57;12.35;;;5.15;;
70505;SDS011;58032;49.820;6.274;2023-01-30T04:38:25;16.80;;;5.50;;
70505;SDS011;58032;49.820;6.274;2023-01-30T04:40:52;15.38;;;5.75;;
70505;SDS011;58032;49.820;6.274;2023-01-30T04:43:20;13.25;;;4.97;;
70505;SDS011;58032;49.820;6.274;2023-01-30T04:46:05;13.55;;;5.00;;
70505;SDS011;58032;49.820;6.274;2023-01-30T04:48:33;10.50;;;3.88;;
70505;SDS011;58032;49.820;6.274;2023-01-30T04:51:01;13.57;;;5.63;;
70505;SDS011;58032;49.820;6.274;2023-01-30T04:53:27;11.23;;;3.92;;
70505;SDS011;58032;49.820;6.274;2023-01-30T04:55:54;10.57;;;3.80;;
70505;SDS011;58032;49.820;6.274;2023-01-30T04:58:21;10.02;;;3.92;;
70505;SDS011;58032;49.820;6.274;2023-01-30T05:00:48;13.48;;;4.35;;
70505;SDS011;58032;49.820;6.274;2023-01-30T05:03:15;12.83;;;4.83;;
70505;SDS011;58032;49.820;6.274;2023-01-30T05:05:42;8.88;;;2.88;;
70505;SDS011;58032;49.820;6.274;2023-01-30T05:08:11;12.23;;;4.53;;
70505;SDS011;58032;49.820;6.274;2023-01-30T05:10:40;7.43;;;2.70;;
70505;SDS011;58032;49.820;6.274;2023-01-30T05:13:07;11.20;;;4.78;;
70505;SDS011;58032;49.820;6.274;2023-01-30T05:15:33;12.83;;;4.00;;
70505;SDS011;58032;49.820;6.274;2023-01-30T05:18:00;8.05;;;3.30;;
70505;SDS011;58032;49.820;6.274;2023-01-30T05:20:27;9.82;;;4.15;;
70505;SDS011;58032;49.820;6.274;2023-01-30T05:22:53;10.48;;;4.15;;
70505;SDS011;58032;49.820;6.274;2023-01-30T05:25:20;9.48;;;3.38;;
70505;SDS011;58032;49.820;6.274;2023-01-30T05:27:47;8.20;;;3.30;;
70505;SDS011;58032;49.820;6.274;2023-01-30T05:30:13;9.30;;;3.70;;
70505;SDS011;58032;49.820;6.274;2023-01-30T05:32:40;9.98;;;4.15;;
70505;SDS011;58032;49.820;6.274;2023-01-30T05:35:07;9.18;;;3.63;;
70505;SDS011;58032;49.820;6.274;2023-01-30T05:37:33;9.80;;;3.85;;
70505;SDS011;58032;49.820;6.274;2023-01-30T05:40:00;7.00;;;2.97;;
70505;SDS011;58032;49.820;6.274;2023-01-30T05:42:27;8.23;;;3.42;;
70505;SDS011;58032;49.820;6.274;2023-01-30T05:44:53;10.57;;;3.65;;
70505;SDS011;58032;49.820;6.274;2023-01-30T05:47:20;8.85;;;3.15;;
70505;SDS011;58032;49.820;6.274;2023-01-30T05:49:46;6.82;;;2.85;;
70505;SDS011;58032;49.820;6.274;2023-01-30T05:52:13;12.57;;;5.33;;
70505;SDS011;58032;49.820;6.274;2023-01-30T05:54:40;8.40;;;3.53;;
70505;SDS011;58032;49.820;6.274;2023-01-30T05:57:06;12.23;;;4.10;;
70505;SDS011;58032;49.820;6.274;2023-01-30T05:59:33;7.65;;;2.85;;
70505;SDS011;58032;49.820;6.274;2023-01-30T06:02:00;10.98;;;3.92;;
70505;SDS011;58032;49.820;6.274;2023-01-30T06:04:26;8.93;;;4.10;;
70505;SDS011;58032;49.820;6.274;2023-01-30T06:06:53;9.93;;;4.10;;
70505;SDS011;58032;49.820;6.274;2023-01-30T06:09:19;7.78;;;3.17;;
70505;SDS011;58032;49.820;6.274;2023-01-30T06:11:46;9.95;;;3.95;;
70505;SDS011;58032;49.820;6.274;2023-01-30T06:14:13;10.95;;;4.32;;
70505;SDS011;58032;49.820;6.274;2023-01-30T06:16:40;13.57;;;4.30;;
70505;SDS011;58032;49.820;6.274;2023-01-30T06:19:07;7.13;;;2.65;;
70505;SDS011;58032;49.820;6.274;2023-01-30T06:21:33;8.18;;;3.28;;
70505;SDS011;58032;49.820;6.274;2023-01-30T06:24:00;11.98;;;3.88;;
70505;SDS011;58032;49.820;6.274;2023-01-30T06:26:27;9.43;;;3.60;;
70505;SDS011;58032;49.820;6.274;2023-01-30T06:28:54;10.07;;;4.13;;
70505;SDS011;58032;49.820;6.274;2023-01-30T06:31:21;10.25;;;3.58;;
70505;SDS011;58032;49.820;6.274;2023-01-30T06:33:47;11.95;;;4.20;;
70505;SDS011;58032;49.820;6.274;2023-01-30T06:36:14;10.48;;;4.50;;
70505;SDS011;58032;49.820;6.274;2023-01-30T06:38:41;8.60;;;3.97;;
70505;SDS011;58032;49.820;6.274;2023-01-30T06:41:08;11.03;;;4.37;;
70505;SDS011;58032;49.820;6.274;2023-01-30T06:43:35;9.52;;;3.75;;
70505;SDS011;58032;49.820;6.274;2023-01-30T06:46:01;9.55;;;3.47;;
70505;SDS011;58032;49.820;6.274;2023-01-30T06:48:28;10.10;;;4.00;;
70505;SDS011;58032;49.820;6.274;2023-01-30T06:50:55;9.95;;;3.38;;
70505;SDS011;58032;49.820;6.274;2023-01-30T06:53:21;8.60;;;3.30;;
70505;SDS011;58032;49.820;6.274;2023-01-30T06:55:50;7.55;;;3.42;;
70505;SDS011;58032;49.820;6.274;2023-01-30T06:58:17;7.43;;;3.03;;
70505;SDS011;58032;49.820;6.274;2023-01-30T07:00:44;9.95;;;3.53;;
70505;SDS011;58032;49.820;6.274;2023-01-30T07:03:11;7.65;;;2.63;;
70505;SDS011;58032;49.820;6.274;2023-01-30T07:05:39;7.90;;;3.20;;
70505;SDS011;58032;49.820;6.274;2023-01-30T07:08:06;6.10;;;2.15;;
70505;SDS011;58032;49.820;6.274;2023-01-30T07:10:33;9.13;;;2.83;;
70505;SDS011;58032;49.820;6.274;2023-01-30T07:13:01;10.38;;;3.50;;
70505;SDS011;58032;49.820;6.274;2023-01-30T07:15:28;6.93;;;3.00;;
70505;SDS011;58032;49.820;6.274;2023-01-30T07:17:55;6.47;;;2.50;;
70505;SDS011;58032;49.820;6.274;2023-01-30T07:20:21;7.13;;;2.90;;
70505;SDS011;58032;49.820;6.274;2023-01-30T07:22:51;7.80;;;3.13;;
70505;SDS011;58032;49.820;6.274;2023-01-30T07:25:19;4.65;;;1.20;;
70505;SDS011;58032;49.820;6.274;2023-01-30T07:27:53;5.00;;;2.08;;
70505;SDS011;58032;49.820;6.274;2023-01-30T07:30:20;7.63;;;2.67;;
70505;SDS011;58032;49.820;6.274;2023-01-30T07:32:50;6.18;;;2.20;;
70505;SDS011;58032;49.820;6.274;2023-01-30T07:35:17;8.35;;;2.53;;
70505;SDS011;58032;49.820;6.274;2023-01-30T07:37:48;8.48;;;3.10;;
70505;SDS011;58032;49.820;6.274;2023-01-30T07:40:15;5.45;;;2.20;;
70505;SDS011;58032;49.820;6.274;2023-01-30T07:42:42;6.07;;;1.83;;
70505;SDS011;58032;49.820;6.274;2023-01-30T07:45:09;6.13;;;1.77;;
70505;SDS011;58032;49.820;6.274;2023-01-30T07:47:35;7.65;;;2.22;;
70505;SDS011;58032;49.820;6.274;2023-01-30T07:50:02;6.40;;;2.17;;
70505;SDS011;58032;49.820;6.274;2023-01-30T07:52:29;6.68;;;2.75;;
70505;SDS011;58032;49.820;6.274;2023-01-30T07:54:56;4.03;;;1.37;;
70505;SDS011;58032;49.820;6.274;2023-01-30T07:57:24;5.85;;;1.95;;
70505;SDS011;58032;49.820;6.274;2023-01-30T07:59:51;5.85;;;1.50;;
70505;SDS011;58032;49.820;6.274;2023-01-30T08:02:18;5.15;;;1.88;;
70505;SDS011;58032;49.820;6.274;2023-01-30T08:04:44;6.65;;;2.60;;
70505;SDS011;58032;49.820;6.274;2023-01-30T08:07:11;5.77;;;2.20;;
70505;SDS011;58032;49.820;6.274;2023-01-30T08:09:38;3.70;;;1.55;;
70505;SDS011;58032;49.820;6.274;2023-01-30T08:12:04;4.60;;;2.03;;
70505;SDS011;58032;49.820;6.274;2023-01-30T08:14:31;6.15;;;1.77;;
70505;SDS011;58032;49.820;6.274;2023-01-30T08:16:58;6.28;;;1.73;;
70505;SDS011;58032;49.820;6.274;2023-01-30T08:19:24;7.30;;;2.27;;
70505;SDS011;58032;49.820;6.274;2023-01-30T08:21:51;5.05;;;1.52;;
70505;SDS011;58032;49.820;6.274;2023-01-30T08:24:18;3.42;;;1.10;;
70505;SDS011;58032;49.820;6.274;2023-01-30T08:26:46;4.43;;;1.27;;
70505;SDS011;58032;49.820;6.274;2023-01-30T08:29:13;4.65;;;1.42;;
70505;SDS011;58032;49.820;6.274;2023-01-30T08:31:40;5.87;;;2.00;;
70505;SDS011;58032;49.820;6.274;2023-01-30T08:34:06;4.53;;;1.25;;
70505;SDS011;58032;49.820;6.274;2023-01-30T08:36:33;2.67;;;0.88;;
70505;SDS011;58032;49.820;6.274;2023-01-30T08:39:00;5.63;;;1.73;;
70505;SDS011;58032;49.820;6.274;2023-01-30T08:41:26;5.82;;;1.73;;
70505;SDS011;58032;49.820;6.274;2023-01-30T08:43:53;4.67;;;1.40;;
70505;SDS011;58032;49.820;6.274;2023-01-30T08:46:20;3.58;;;1.38;;
70505;SDS011;58032;49.820;6.274;2023-01-30T08:48:47;3.08;;;1.05;;
70505;SDS011;58032;49.820;6.274;2023-01-30T08:51:15;3.85;;;0.93;;
70505;SDS011;58032;49.820;6.274;2023-01-30T08:53:42;3.50;;;0.98;;
70505;SDS011;58032;49.820;6.274;2023-01-30T08:56:09;4.30;;;1.40;;
70505;SDS011;58032;49.820;6.274;2023-01-30T08:58:36;3.00;;;1.00;;
70505;SDS011;58032;49.820;6.274;2023-01-30T09:01:06;4.13;;;1.20;;
70505;SDS011;58032;49.820;6.274;2023-01-30T09:03:33;2.53;;;0.68;;
70505;SDS011;58032;49.820;6.274;2023-01-30T09:06:00;3.55;;;0.98;;
70505;SDS011;58032;49.820;6.274;2023-01-30T09:08:27;4.13;;;1.20;;
70505;SDS011;58032;49.820;6.274;2023-01-30T09:10:57;3.03;;;0.77;;
70505;SDS011;58032;49.820;6.274;2023-01-30T09:13:25;3.40;;;0.95;;
70505;SDS011;58032;49.820;6.274;2023-01-30T09:15:51;3.17;;;1.13;;
70505;SDS011;58032;49.820;6.274;2023-01-30T09:18:18;2.55;;;0.80;;
70505;SDS011;58032;49.820;6.274;2023-01-30T09:20:45;3.37;;;0.90;;
70505;SDS011;58032;49.820;6.274;2023-01-30T09:23:12;2.70;;;0.90;;
70505;SDS011;58032;49.820;6.274;2023-01-30T09:25:38;3.40;;;0.98;;
70505;SDS011;58032;49.820;6.274;2023-01-30T09:28:05;4.03;;;1.05;;
70505;SDS011;58032;49.820;6.274;2023-01-30T09:30:33;3.03;;;1.10;;
70505;SDS011;58032;49.820;6.274;2023-01-30T09:33:00;3.57;;;0.87;;
70505;SDS011;58032;49.820;6.274;2023-01-30T09:35:26;2.65;;;0.93;;
70505;SDS011;58032;49.820;6.274;2023-01-30T09:37:53;3.15;;;1.00;;
70505;SDS011;58032;49.820;6.274;2023-01-30T09:40:21;3.38;;;0.88;;
70505;SDS011;58032;49.820;6.274;2023-01-30T09:42:52;3.55;;;1.00;;
70505;SDS011;58032;49.820;6.274;2023-01-30T09:52:54;2.80;;;0.63;;
70505;SDS011;58032;49.820;6.274;2023-01-30T09:55:24;3.47;;;0.80;;
70505;SDS011;58032;49.820;6.274;2023-01-30T09:57:51;3.95;;;1.08;;
70505;SDS011;58032;49.820;6.274;2023-01-30T10:00:34;3.60;;;0.57;;
70505;SDS011;58032;49.820;6.274;2023-01-30T10:03:08;2.67;;;1.00;;
70505;SDS011;58032;49.820;6.274;2023-01-30T10:10:47;3.13;;;0.93;;
70505;SDS011;58032;49.820;6.274;2023-01-30T10:13:34;3.05;;;0.80;;
70505;SDS011;58032;49.820;6.274;2023-01-30T10:26:19;2.35;;;0.60;;
70505;SDS011;58032;49.820;6.274;2023-01-30T10:29:03;3.03;;;0.90;;
70505;SDS011;58032;49.820;6.274;2023-01-30T10:31:41;2.13;;;0.47;;
70505;SDS011;58032;49.820;6.274;2023-01-30T10:34:19;2.67;;;0.68;;
70505;SDS011;58032;49.820;6.274;2023-01-30T10:37:05;1.80;;;0.40;;
70505;SDS011;58032;49.820;6.274;2023-01-30T10:39:49;1.75;;;0.50;;
70505;SDS011;58032;49.820;6.274;2023-01-30T10:42:28;1.67;;;0.63;;
70505;SDS011;58032;49.820;6.274;2023-01-30T10:44:59;2.30;;;0.67;;
70505;SDS011;58032;49.820;6.274;2023-01-30T10:47:32;2.53;;;0.60;;
70505;SDS011;58032;49.820;6.274;2023-01-30T10:50:13;2.55;;;0.68;;
70505;SDS011;58032;49.820;6.274;2023-01-30T10:53:44;3.97;;;1.00;;
70505;SDS011;58032;49.820;6.274;2023-01-30T10:55:38;3.97;;;0.50;;
70505;SDS011;58032;49.820;6.274;2023-01-30T10:58:19;2.43;;;0.77;;
70505;SDS011;58032;49.820;6.274;2023-01-30T11:01:50;3.17;;;1.25;;
70505;SDS011;58032;49.820;6.274;2023-01-30T11:06:13;4.32;;;1.30;;
70505;SDS011;58032;49.820;6.274;2023-01-30T11:08:42;3.17;;;1.00;;
70505;SDS011;58032;49.820;6.274;2023-01-30T11:13:47;3.33;;;0.80;;
70505;SDS011;58032;49.820;6.274;2023-01-30T11:16:14;2.90;;;1.30;;
70505;SDS011;58032;49.820;6.274;2023-01-30T11:18:44;2.25;;;1.00;;
70505;SDS011;58032;49.820;6.274;2023-01-30T11:21:32;3.00;;;0.90;;
70505;SDS011;58032;49.820;6.274;2023-01-30T11:24:13;2.60;;;0.87;;
70505;SDS011;58032;49.820;6.274;2023-01-30T11:26:40;2.92;;;0.70;;
70505;SDS011;58032;49.820;6.274;2023-01-30T11:29:23;2.92;;;1.00;;
70505;SDS011;58032;49.820;6.274;2023-01-30T11:31:50;1.60;;;0.40;;
70505;SDS011;58032;49.820;6.274;2023-01-30T11:34:18;2.72;;;1.00;;
70505;SDS011;58032;49.820;6.274;2023-01-30T11:36:45;2.53;;;0.53;;
70505;SDS011;58032;49.820;6.274;2023-01-30T11:44:26;3.10;;;1.15;;
70505;SDS011;58032;49.820;6.274;2023-01-30T11:46:53;2.05;;;0.65;;
70505;SDS011;58032;49.820;6.274;2023-01-30T11:49:20;3.73;;;1.17;;
70505;SDS011;58032;49.820;6.274;2023-01-30T11:51:47;2.70;;;1.00;;
70505;SDS011;58032;49.820;6.274;2023-01-30T11:54:19;3.33;;;1.15;;
70505;SDS011;58032;49.820;6.274;2023-01-30T11:56:52;2.97;;;0.85;;
70505;SDS011;58032;49.820;6.274;2023-01-30T11:59:25;3.40;;;1.20;;
70505;SDS011;58032;49.820;6.274;2023-01-30T12:04:29;3.45;;;1.25;;
70505;SDS011;58032;49.820;6.274;2023-01-30T12:09:45;2.85;;;1.00;;
70505;SDS011;58032;49.820;6.274;2023-01-30T12:14:51;3.17;;;1.30;;
70505;SDS011;58032;49.820;6.274;2023-01-30T12:17:26;3.80;;;1.15;;
70505;SDS011;58032;49.820;6.274;2023-01-30T12:25:22;6.15;;;1.70;;
70505;SDS011;58032;49.820;6.274;2023-01-30T12:27:55;3.70;;;0.93;;
70505;SDS011;58032;49.820;6.274;2023-01-30T12:32:53;4.45;;;1.63;;
70505;SDS011;58032;49.820;6.274;2023-01-30T12:35:23;4.82;;;1.42;;
70505;SDS011;58032;49.820;6.274;2023-01-30T12:43:38;4.43;;;1.75;;
70505;SDS011;58032;49.820;6.274;2023-01-30T12:46:20;2.35;;;0.77;;
70505;SDS011;58032;49.820;6.274;2023-01-30T12:51:59;7.07;;;1.88;;
70505;SDS011;58032;49.820;6.274;2023-01-30T12:55:05;3.20;;;1.33;;
70505;SDS011;58032;49.820;6.274;2023-01-30T13:00:00;6.28;;;1.70;;
70505;SDS011;58032;49.820;6.274;2023-01-30T13:07:53;6.57;;;1.80;;
70505;SDS011;58032;49.820;6.274;2023-01-30T13:15:21;3.90;;;1.40;;
70505;SDS011;58032;49.820;6.274;2023-01-30T13:17:59;6.43;;;1.60;;
70505;SDS011;58032;49.820;6.274;2023-01-30T13:20:43;1.83;;;0.43;;
70505;SDS011;58032;49.820;6.274;2023-01-30T13:23:15;3.97;;;1.38;;
70505;SDS011;58032;49.820;6.274;2023-01-30T13:28:13;3.53;;;0.75;;
70505;SDS011;58032;49.820;6.274;2023-01-30T13:30:41;2.67;;;0.70;;
70505;SDS011;58032;49.820;6.274;2023-01-30T13:33:12;3.93;;;0.50;;
70505;SDS011;58032;49.820;6.274;2023-01-30T13:35:46;2.88;;;0.95;;
70505;SDS011;58032;49.820;6.274;2023-01-30T13:38:19;2.40;;;0.60;;
70505;SDS011;58032;49.820;6.274;2023-01-30T13:40:46;5.15;;;1.00;;
70505;SDS011;58032;49.820;6.274;2023-01-30T13:43:18;3.83;;;0.52;;
70505;SDS011;58032;49.820;6.274;2023-01-30T13:45:47;3.63;;;0.80;;
70505;SDS011;58032;49.820;6.274;2023-01-30T13:53:33;7.47;;;0.82;;
70505;SDS011;58032;49.820;6.274;2023-01-30T13:58:57;3.43;;;0.40;;
70505;SDS011;58032;49.820;6.274;2023-01-30T14:01:21;6.72;;;1.27;;
70505;SDS011;58032;49.820;6.274;2023-01-30T14:03:48;3.67;;;0.52;;
70505;SDS011;58032;49.820;6.274;2023-01-30T14:08:52;11.55;;;0.95;;
70505;SDS011;58032;49.820;6.274;2023-01-30T14:11:34;7.87;;;0.73;;
70505;SDS011;58032;49.820;6.274;2023-01-30T14:14:22;4.40;;;0.60;;
70505;SDS011;58032;49.820;6.274;2023-01-30T14:16:51;3.35;;;0.73;;
70505;SDS011;58032;49.820;6.274;2023-01-30T14:19:19;7.05;;;0.90;;
70505;SDS011;58032;49.820;6.274;2023-01-30T14:21:53;4.55;;;0.60;;
70505;SDS011;58032;49.820;6.274;2023-01-30T14:24:21;3.90;;;0.80;;
70505;SDS011;58032;49.820;6.274;2023-01-30T14:26:58;4.10;;;0.40;;
70505;SDS011;58032;49.820;6.274;2023-01-30T14:34:41;4.20;;;0.68;;
70505;SDS011;58032;49.820;6.274;2023-01-30T14:40:29;6.75;;;1.00;;
70505;SDS011;58032;49.820;6.274;2023-01-30T14:59:20;4.88;;;0.70;;
70505;SDS011;58032;49.820;6.274;2023-01-30T15:05:10;5.07;;;0.40;;
70505;SDS011;58032;49.820;6.274;2023-01-30T15:07:21;1.85;;;0.32;;
70505;SDS011;58032;49.820;6.274;2023-01-30T15:09:51;6.25;;;0.88;;
70505;SDS011;58032;49.820;6.274;2023-01-30T15:15:12;6.50;;;1.00;;
70505;SDS011;58032;49.820;6.274;2023-01-30T15:21:13;6.47;;;0.80;;
70505;SDS011;58032;49.820;6.274;2023-01-30T15:23:10;4.85;;;0.90;;
70505;SDS011;58032;49.820;6.274;2023-01-30T15:28:13;5.10;;;0.73;;
70505;SDS011;58032;49.820;6.274;2023-01-30T15:30:44;6.67;;;0.90;;
70505;SDS011;58032;49.820;6.274;2023-01-30T15:33:14;5.68;;;0.57;;
70505;SDS011;58032;49.820;6.274;2023-01-30T15:35:48;6.38;;;0.98;;
70505;SDS011;58032;49.820;6.274;2023-01-30T15:40:52;2.35;;;0.50;;
70505;SDS011;58032;49.820;6.274;2023-01-30T15:51:19;1.30;;;0.30;;
70505;SDS011;58032;49.820;6.274;2023-01-30T15:53:47;3.97;;;0.50;;
70505;SDS011;58032;49.820;6.274;2023-01-30T15:56:21;1.88;;;0.60;;
70505;SDS011;58032;49.820;6.274;2023-01-30T15:58:49;4.40;;;0.75;;
70505;SDS011;58032;49.820;6.274;2023-01-30T16:01:17;4.78;;;1.00;;
70505;SDS011;58032;49.820;6.274;2023-01-30T16:03:45;8.48;;;1.05;;
70505;SDS011;58032;49.820;6.274;2023-01-30T16:09:02;10.45;;;1.15;;
70505;SDS011;58032;49.820;6.274;2023-01-30T16:13:59;7.38;;;0.95;;
70505;SDS011;58032;49.820;6.274;2023-01-30T16:16:51;6.45;;;0.50;;
70505;SDS011;58032;49.820;6.274;2023-01-30T16:19:33;9.77;;;0.87;;
70505;SDS011;58032;49.820;6.274;2023-01-30T16:22:15;4.93;;;0.55;;
70505;SDS011;58032;49.820;6.274;2023-01-30T16:24:55;4.40;;;0.85;;
70505;SDS011;58032;49.820;6.274;2023-01-30T16:27:28;4.93;;;1.00;;
70505;SDS011;58032;49.820;6.274;2023-01-30T16:30:06;1.98;;;0.30;;
70505;SDS011;58032;49.820;6.274;2023-01-30T16:32:38;8.77;;;0.80;;
70505;SDS011;58032;49.820;6.274;2023-01-30T16:38:22;6.53;;;0.65;;
70505;SDS011;58032;49.820;6.274;2023-01-30T16:40:57;7.97;;;0.63;;
70505;SDS011;58032;49.820;6.274;2023-01-30T16:43:28;9.02;;;0.90;;
70505;SDS011;58032;49.820;6.274;2023-01-30T16:49:00;4.25;;;0.40;;
70505;SDS011;58032;49.820;6.274;2023-01-30T16:51:30;5.30;;;0.73;;
70505;SDS011;58032;49.820;6.274;2023-01-30T16:53:58;5.63;;;0.63;;
70505;SDS011;58032;49.820;6.274;2023-01-30T16:56:51;2.25;;;0.60;;
70505;SDS011;58032;49.820;6.274;2023-01-30T16:59:27;5.27;;;0.57;;
70505;SDS011;58032;49.820;6.274;2023-01-30T17:01:57;6.13;;;0.85;;
70505;SDS011;58032;49.820;6.274;2023-01-30T17:04:33;6.28;;;0.93;;
70505;SDS011;58032;49.820;6.274;2023-01-30T17:07:28;6.10;;;1.38;;
70505;SDS011;58032;49.820;6.274;2023-01-30T17:09:57;3.92;;;0.45;;
70505;SDS011;58032;49.820;6.274;2023-01-30T17:17:41;8.95;;;1.92;;
70505;SDS011;58032;49.820;6.274;2023-01-30T17:20:18;5.70;;;0.90;;
70505;SDS011;58032;49.820;6.274;2023-01-30T17:23:03;12.27;;;1.17;;
70505;SDS011;58032;49.820;6.274;2023-01-30T17:25:58;5.87;;;0.80;;
70505;SDS011;58032;49.820;6.274;2023-01-30T17:28:26;7.82;;;1.00;;
70505;SDS011;58032;49.820;6.274;2023-01-30T17:31:00;4.55;;;0.70;;
70505;SDS011;58032;49.820;6.274;2023-01-30T17:33:30;5.97;;;1.23;;
70505;SDS011;58032;49.820;6.274;2023-01-30T17:35:57;40.47;;;12.30;;
70505;SDS011;58032;49.820;6.274;2023-01-30T17:38:33;16.20;;;3.30;;
70505;SDS011;58032;49.820;6.274;2023-01-30T17:41:04;49.88;;;9.20;;
70505;SDS011;58032;49.820;6.274;2023-01-30T17:43:43;18.60;;;3.95;;
70505;SDS011;58032;49.820;6.274;2023-01-30T17:46:13;10.93;;;2.42;;
70505;SDS011;58032;49.820;6.274;2023-01-30T17:48:51;16.70;;;2.75;;
70505;SDS011;58032;49.820;6.274;2023-01-30T17:51:18;10.60;;;2.17;;
70505;SDS011;58032;49.820;6.274;2023-01-30T17:53:45;14.43;;;2.47;;
70505;SDS011;58032;49.820;6.274;2023-01-30T17:56:14;14.23;;;1.20;;
70505;SDS011;58032;49.820;6.274;2023-01-30T17:58:41;9.00;;;1.73;;